Time;durP1;ratioP1;P1;durP2;ratioP2;P2;SDS_P1;SDS_P2;PMS_P1;PMS_P2;Temp;Humidity;BMP_temperature;BMP_pressure;BME280_temperature;BME280_humidity;BME280_pressure;Samples;Min_cycle;Max_cycle;Signal;HPM_P1;HPM_P2
2022/06/24 00:07:51;;;;;;;6.37;5.40;;;;;;;14.60;100.00;99405.25;31262181;28;20132;-78
2022/06/24 00:22:54;;;;;;;10.73;5.70;;;;;;;14.57;100.00;99400.69;31395312;28;20139;-77
2022/06/24 00:37:56;;;;;;;10.27;5.83;;;;;;;14.54;100.00;99406.31;31300511;28;20140;-78
2022/06/24 00:53:00;;;;;;;12.33;6.23;;;;;;;14.52;100.00;99395.84;31345100;28;20414;-79
2022/06/24 01:08:11;;;;;;;12.97;6.40;;;;;;;14.52;100.00;99414.97;31326290;28;20045;-78
2022/06/24 01:23:22;;;;;;;11.97;6.70;;;;;;;14.48;100.00;99422.56;31297602;28;20049;-78
2022/06/24 01:38:24;;;;;;;16.37;6.67;;;;;;;14.39;100.00;99433.50;31285155;28;20045;-77
2022/06/24 01:53:26;;;;;;;14.67;6.83;;;;;;;14.49;100.00;99451.41;31295719;28;20055;-77
2022/06/24 02:08:29;;;;;;;12.10;7.10;;;;;;;14.41;100.00;99436.53;31288100;28;20056;-78
2022/06/24 02:23:31;;;;;;;13.13;6.67;;;;;;;14.53;100.00;99432.88;31293179;28;20092;-79
2022/06/24 02:38:34;;;;;;;11.17;6.50;;;;;;;14.83;100.00;99433.06;31305000;28;20151;-78
2022/06/24 02:53:36;;;;;;;9.57;6.63;;;;;;;14.98;100.00;99417.47;31313419;28;20064;-78
2022/06/24 03:08:39;;;;;;;14.10;7.70;;;;;;;15.40;100.00;99408.38;31256991;28;20053;-78
2022/06/24 03:23:46;;;;;;;17.37;7.37;;;;;;;15.83;100.00;99418.69;31279646;28;20057;-79
2022/06/24 03:38:48;;;;;;;13.50;7.47;;;;;;;16.31;100.00;99415.75;31266907;28;20049;-78
2022/06/24 03:53:50;;;;;;;12.18;6.97;;;;;;;17.02;100.00;99442.00;31307051;28;20049;-78
2022/06/24 04:08:54;;;;;;;10.50;6.15;;;;;;;17.70;100.00;99427.91;31307159;28;20395;-78
2022/06/24 04:23:56;;;;;;;8.13;4.07;;;;;;;17.84;100.00;99437.28;31323550;28;20069;-79
2022/06/24 04:38:58;;;;;;;4.75;3.35;;;;;;;18.61;93.71;99444.72;31316465;28;20052;-78
2022/06/24 04:53:59;;;;;;;9.35;5.50;;;;;;;19.07;89.91;99444.53;31296698;28;20055;-79
2022/06/24 05:09:02;;;;;;;8.57;5.43;;;;;;;19.87;86.29;99423.03;31268871;28;20049;-79
2022/06/24 05:24:04;;;;;;;9.25;3.40;;;;;;;20.54;78.50;99439.66;31304083;28;20061;-79
2022/06/24 05:39:07;;;;;;;4.68;3.10;;;;;;;20.82;78.44;99455.41;31309055;28;20048;-80
2022/06/24 06:09:29;;;;;;;4.80;3.08;;;;;;;20.41;80.99;99480.75;31291901;28;20099;-81
2022/06/24 06:24:32;;;;;;;6.03;3.58;;;;;;;20.28;81.71;99488.75;31310701;28;20141;-79
2022/06/24 06:39:34;;;;;;;5.40;3.73;;;;;;;21.44;74.30;99476.84;31302311;28;20051;-78
2022/06/24 06:54:37;;;;;;;45.33;15.70;;;;;;;22.45;69.88;99471.50;31300379;28;20045;-79
2022/06/24 07:09:39;;;;;;;32.37;15.83;;;;;;;23.91;66.25;99481.78;31269363;28;20059;-77
2022/06/24 07:24:41;;;;;;;12.27;7.60;;;;;;;23.91;61.64;99470.69;31269084;28;20053;-77
2022/06/24 07:39:43;;;;;;;20.58;8.27;;;;;;;25.09;59.44;99472.34;31265933;28;20081;-79
2022/06/24 07:54:45;;;;;;;6.57;3.53;;;;;;;25.29;55.29;99466.16;31319054;28;20052;-79
2022/06/24 08:09:47;;;;;;;;;;;;;;;25.52;51.68;99457.34;31296055;28;20057;-78
2022/06/24 08:24:49;;;;;;;6.63;4.60;;;;;;;25.09;54.57;99439.03;31285966;28;19924;-83
2022/06/24 08:40:12;;;;;;;8.90;4.43;;;;;;;25.21;53.51;99417.34;31303718;28;20053;-78
2022/06/24 08:55:20;;;;;;;8.70;4.35;;;;;;;25.68;47.74;99403.50;31329485;28;20119;-83
2022/06/24 09:10:22;;;;;;;5.65;4.55;;;;;;;25.87;50.91;99394.97;31311529;28;20064;-73
2022/06/24 09:25:24;;;;;;;18.55;4.35;;;;;;;26.61;48.41;99385.06;31286379;28;20049;-72
2022/06/24 09:40:29;;;;;;;5.70;3.40;;;;;;;26.71;46.91;99376.94;31277631;28;20048;-70
2022/06/24 09:55:31;;;;;;;5.82;3.38;;;;;;;26.36;46.67;99381.16;31302846;28;20046;-72
2022/06/24 10:10:35;;;;;;;4.20;3.80;;;;;;;26.30;47.48;99394.47;31292018;28;20053;-71
2022/06/24 10:25:46;;;;;;;3.60;3.30;;;;;;;26.48;44.96;99388.66;31259740;28;20053;-72
2022/06/24 10:40:50;;;;;;;4.50;3.87;;;;;;;25.30;49.26;99398.19;31288121;28;20479;-73
2022/06/24 10:55:52;;;;;;;5.50;3.78;;;;;;;26.63;48.42;99368.56;31274632;28;20045;-73
2022/06/24 11:10:54;;;;;;;4.90;3.65;;;;;;;27.07;45.19;99397.22;31284511;28;20399;-73
2022/06/24 11:26:14;;;;;;;9.15;4.45;;;;;;;25.99;45.67;99382.28;31295626;28;20140;-82
2022/06/24 11:41:35;;;;;;;4.07;3.33;;;;;;;25.17;47.42;99362.13;31277289;28;20060;-82
2022/06/24 11:56:58;;;;;;;6.20;3.80;;;;;;;24.91;49.95;99356.59;31287599;28;20044;-73
2022/06/24 12:12:12;;;;;;;5.45;3.35;;;;;;;25.00;47.44;99361.75;31304775;28;20044;-71
2022/06/24 12:27:14;;;;;;;5.22;3.35;;;;;;;24.79;49.89;99356.81;31308693;28;20051;-72
2022/06/24 12:42:19;;;;;;;7.10;4.80;;;;;;;24.21;56.33;99365.16;31303922;28;20486;-72
2022/06/24 12:57:21;;;;;;;5.90;3.85;;;;;;;23.73;60.71;99377.25;31272558;28;20090;-72
2022/06/24 13:12:23;;;;;;;5.43;4.07;;;;;;;23.62;61.55;99399.59;31275806;28;21326;-73
2022/06/24 13:27:27;;;;;;;9.20;4.33;;;;;;;23.48;66.08;99402.25;31319151;28;20168;-84
2022/06/24 13:42:32;;;;;;;5.93;4.63;;;;;;;23.19;69.62;99331.13;31303357;28;20136;-81
2022/06/24 13:57:34;;;;;;;7.78;5.22;;;;;;;22.30;74.72;99393.72;31318027;28;20049;-82
2022/06/24 14:12:36;;;;;;;6.33;4.27;;;;;;;21.58;75.93;99443.91;31274256;28;20161;-77
2022/06/24 14:27:39;;;;;;;3.83;2.60;;;;;;;21.10;79.79;99454.09;31304889;28;20080;-78
2022/06/24 14:42:41;;;;;;;4.28;2.55;;;;;;;20.38;88.88;99473.47;31307898;28;20550;-78
2022/06/24 14:57:43;;;;;;;5.18;3.47;;;;;;;20.06;92.31;99492.97;31292553;28;20049;-75
2022/06/24 15:12:46;;;;;;;7.43;3.90;;;;;;;20.21;94.54;99480.97;31293748;28;20144;-77
2022/06/24 15:27:48;;;;;;;7.20;4.10;;;;;;;20.12;96.26;99506.75;31309925;28;20450;-81
2022/06/24 15:42:50;;;;;;;5.63;3.38;;;;;;;19.83;99.60;99496.91;31302449;28;20101;-83
2022/06/24 15:57:52;;;;;;;6.43;4.43;;;;;;;19.53;100.00;99512.31;31319251;28;20120;-70
2022/06/24 16:12:54;;;;;;;4.63;3.58;;;;;;;19.41;100.00;99539.75;31289408;28;20140;-71
2022/06/24 16:43:18;;;;;;;5.30;3.75;;;;;;;19.09;100.00;99574.06;31310190;28;20505;-71
2022/06/24 16:58:21;;;;;;;9.50;3.30;;;;;;;18.89;97.80;99585.16;31303208;28;20049;-73
2022/06/24 17:13:24;;;;;;;4.13;2.70;;;;;;;18.50;97.16;99569.03;31296403;28;20041;-71
2022/06/24 17:28:26;;;;;;;6.03;3.77;;;;;;;18.22;96.95;99581.72;31293108;28;20054;-72
2022/06/24 17:43:28;;;;;;;8.02;3.42;;;;;;;18.01;97.71;99584.50;31299396;28;20053;-71
2022/06/24 17:58:30;;;;;;;3.63;2.90;;;;;;;17.80;100.00;99602.22;31297129;28;20060;-71
2022/06/24 18:13:32;;;;;;;3.92;2.95;;;;;;;17.85;100.00;99609.75;31259557;28;20068;-72
2022/06/24 18:28:37;;;;;;;3.78;2.92;;;;;;;18.20;100.00;99625.41;31270450;28;20053;-71
2022/06/24 18:43:40;;;;;;;4.88;3.05;;;;;;;18.26;100.00;99631.72;31251695;28;20053;-72
2022/06/24 18:58:42;;;;;;;4.33;3.83;;;;;;;18.34;100.00;99632.81;31254744;28;20049;-72
2022/06/24 19:13:44;;;;;;;7.68;2.78;;;;;;;18.39;100.00;99629.41;31250780;28;20061;-72
2022/06/24 19:28:46;;;;;;;7.65;4.00;;;;;;;18.28;100.00;99640.25;31267569;28;20071;-73
2022/06/24 19:43:49;;;;;;;3.13;2.55;;;;;;;18.09;100.00;99644.50;31255820;28;20135;-71
2022/06/24 19:58:51;;;;;;;4.18;2.40;;;;;;;17.83;100.00;99645.19;31262985;28;20042;-70
2022/06/24 20:13:53;;;;;;;13.02;8.50;;;;;;;17.75;100.00;99660.53;31271018;28;20136;-71
2022/06/24 20:28:55;;;;;;;7.10;3.45;;;;;;;17.50;100.00;99672.09;31297863;28;20056;-69
2022/06/24 20:43:57;;;;;;;6.93;4.20;;;;;;;17.35;100.00;99692.09;31278086;28;20651;-70
2022/06/24 20:58:59;;;;;;;13.32;6.10;;;;;;;17.21;100.00;99701.09;31267584;28;20494;-70
2022/06/24 21:14:01;;;;;;;34.38;13.18;;;;;;;17.20;99.03;99698.81;31290325;28;20053;-71
2022/06/24 21:29:04;;;;;;;5.35;3.53;;;;;;;17.01;100.00;99709.19;31296381;28;20064;-71
2022/06/24 21:44:07;;;;;;;6.70;3.75;;;;;;;16.85;100.00;99729.59;31292765;28;20049;-72
2022/06/24 21:59:10;;;;;;;6.47;3.60;;;;;;;16.81;100.00;99722.78;31290237;28;20549;-70
2022/06/24 22:14:12;;;;;;;7.85;4.25;;;;;;;16.52;100.00;99726.97;31265575;28;20041;-70
2022/06/24 22:29:14;;;;;;;10.73;5.65;;;;;;;16.65;100.00;99722.00;31286703;28;20091;-70
2022/06/24 22:44:16;;;;;;;6.18;4.00;;;;;;;16.73;99.87;99716.94;31269595;28;20049;-71
2022/06/24 22:59:18;;;;;;;6.28;3.35;;;;;;;16.79;98.74;99719.75;31270755;28;20045;-70
2022/06/24 23:14:20;;;;;;;6.88;4.85;;;;;;;16.40;100.00;99741.63;31259367;28;20048;-71
2022/06/24 23:29:22;;;;;;;9.00;4.20;;;;;;;16.00;100.00;99739.28;31257477;28;20045;-70
2022/06/24 23:44:24;;;;;;;14.18;4.50;;;;;;;15.74;100.00;99733.47;31274302;28;20060;-71
2022/06/24 23:59:26;;;;;;;17.53;9.97;;;;;;;15.70;100.00;99724.66;31252416;28;20045;-70
